createdAt,value
2023-10-07T00:00:53.685Z,10.30
2023-10-07T00:03:22.865Z,10.20
2023-10-07T00:05:51.580Z,10.20
2023-10-07T00:08:21.286Z,10.00
2023-10-07T00:10:51.699Z,9.90
2023-10-07T00:13:21.278Z,9.80
2023-10-07T00:15:53.181Z,9.70
2023-10-07T00:18:23.985Z,9.70
2023-10-07T00:20:55.460Z,9.60
2023-10-07T00:23:24.011Z,9.60
2023-10-07T00:25:53.931Z,9.60
2023-10-07T00:28:29.896Z,9.50
2023-10-07T00:31:03.637Z,9.60
2023-10-07T00:33:46.651Z,9.40
2023-10-07T00:36:23.049Z,9.40
2023-10-07T00:38:55.101Z,9.30
2023-10-07T00:41:25.763Z,9.20
2023-10-07T00:43:59.863Z,9.20
2023-10-07T00:46:30.309Z,9.10
2023-10-07T00:49:00.137Z,9.10
2023-10-07T00:51:35.435Z,9.10
2023-10-07T00:54:17.611Z,9.10
2023-10-07T00:56:51.910Z,9.10
2023-10-07T00:59:20.817Z,9.10
2023-10-07T01:01:51.803Z,9.10
2023-10-07T01:04:21.703Z,9.00
2023-10-07T01:06:49.546Z,9.00
2023-10-07T01:09:23.213Z,9.00
2023-10-07T01:11:58.487Z,9.00
2023-10-07T01:14:27.824Z,9.00
2023-10-07T01:16:57.626Z,9.00
2023-10-07T01:19:44.151Z,9.20
2023-10-07T01:22:19.696Z,9.20
2023-10-07T01:24:50.395Z,9.20
2023-10-07T01:27:32.874Z,9.10
2023-10-07T01:30:08.236Z,9.10
2023-10-07T01:32:44.006Z,9.10
2023-10-07T01:35:12.929Z,9.10
2023-10-07T01:37:46.144Z,9.10
2023-10-07T01:40:17.180Z,9.00
2023-10-07T01:42:47.944Z,9.00
2023-10-07T01:45:23.038Z,9.10
2023-10-07T01:47:54.332Z,9.10
2023-10-07T01:50:24.658Z,9.20
2023-10-07T01:52:57.084Z,9.20
2023-10-07T01:55:28.799Z,9.30
2023-10-07T01:57:57.048Z,9.40
2023-10-07T02:00:40.257Z,9.40
2023-10-07T02:03:10.780Z,9.30
2023-10-07T02:05:41.993Z,9.20
2023-10-07T02:08:15.142Z,9.20
2023-10-07T02:10:43.526Z,9.20
2023-10-07T02:13:15.102Z,9.20
2023-10-07T02:15:44.187Z,9.20
2023-10-07T02:18:16.863Z,9.10
2023-10-07T02:20:50.365Z,9.00
2023-10-07T02:23:29.073Z,8.90
2023-10-07T02:25:59.507Z,8.80
2023-10-07T02:28:34.352Z,8.60
2023-10-07T02:31:08.811Z,8.60
2023-10-07T02:33:43.933Z,8.60
2023-10-07T02:36:14.904Z,8.50
2023-10-07T02:38:44.163Z,8.50
2023-10-07T02:41:18.375Z,8.40
2023-10-07T02:43:50.780Z,8.40
2023-10-07T02:46:33.036Z,8.40
2023-10-07T02:49:07.529Z,8.30
2023-10-07T02:51:40.591Z,8.30
2023-10-07T02:54:18.327Z,8.20
2023-10-07T02:56:55.316Z,8.20
2023-10-07T02:59:28.939Z,8.20
2023-10-07T03:02:11.255Z,8.20
2023-10-07T03:04:42.832Z,8.20
2023-10-07T03:07:15.871Z,8.20
2023-10-07T03:09:47.375Z,8.20
2023-10-07T03:12:15.249Z,8.20
2023-10-07T03:14:45.191Z,8.10
2023-10-07T03:17:21.407Z,8.00
2023-10-07T03:19:54.057Z,8.00
2023-10-07T03:22:29.348Z,7.90
2023-10-07T03:25:01.764Z,7.90
2023-10-07T03:27:40.362Z,7.90
2023-10-07T03:30:14.559Z,7.90
2023-10-07T03:32:56.840Z,7.90
2023-10-07T03:35:43.287Z,7.80
2023-10-07T03:38:12.264Z,7.80
2023-10-07T03:40:49.256Z,7.80
2023-10-07T03:43:17.547Z,7.90
2023-10-07T03:45:46.659Z,7.90
2023-10-07T03:48:28.391Z,7.90
2023-10-07T03:51:05.929Z,7.90
2023-10-07T03:53:34.077Z,7.90
2023-10-07T03:56:07.723Z,7.90
2023-10-07T03:58:37.703Z,7.90
2023-10-07T04:01:12.955Z,8.00
2023-10-07T04:03:41.811Z,7.90
2023-10-07T04:06:11.151Z,7.80
2023-10-07T04:08:40.716Z,7.80
2023-10-07T04:11:17.986Z,7.80
2023-10-07T04:13:54.286Z,7.80
2023-10-07T04:16:25.238Z,7.80
2023-10-07T04:18:54.113Z,7.80
2023-10-07T04:21:22.554Z,7.80
2023-10-07T04:23:50.348Z,7.80
2023-10-07T04:26:21.500Z,7.80
2023-10-07T04:28:50.351Z,7.80
2023-10-07T04:31:18.690Z,7.80
2023-10-07T04:33:54.756Z,7.70
2023-10-07T04:36:36.465Z,7.70
2023-10-07T04:39:18.993Z,7.80
2023-10-07T04:41:57.905Z,7.90
2023-10-07T04:44:49.314Z,7.90
2023-10-07T04:47:31.527Z,7.80
2023-10-07T04:50:06.500Z,7.70
2023-10-07T04:52:35.291Z,7.70
2023-10-07T04:55:03.461Z,7.70
2023-10-07T04:57:46.599Z,7.70
2023-10-07T05:00:28.894Z,7.60
2023-10-07T05:02:58.621Z,7.60
2023-10-07T05:05:30.039Z,7.50
2023-10-07T05:07:59.749Z,7.60
2023-10-07T05:10:30.380Z,7.50
2023-10-07T05:13:02.180Z,7.50
2023-10-07T05:15:31.885Z,7.40
2023-10-07T05:18:02.698Z,7.40
2023-10-07T05:20:33.935Z,7.40
2023-10-07T05:23:04.280Z,7.50
2023-10-07T05:25:36.993Z,7.50
2023-10-07T05:28:11.744Z,7.40
2023-10-07T05:30:42.430Z,7.40
2023-10-07T05:33:10.787Z,7.30
2023-10-07T05:35:39.675Z,7.30
2023-10-07T05:38:10.872Z,7.50
2023-10-07T05:40:39.013Z,7.50
2023-10-07T05:43:09.220Z,7.40
2023-10-07T05:45:37.186Z,7.40
2023-10-07T05:48:05.752Z,7.40
2023-10-07T05:50:33.774Z,7.40
2023-10-07T05:53:04.166Z,7.50
2023-10-07T05:55:31.982Z,7.60
2023-10-07T05:57:59.741Z,7.70
2023-10-07T06:00:32.821Z,7.80
2023-10-07T06:03:06.727Z,7.90
2023-10-07T06:05:34.834Z,8.00
2023-10-07T06:08:05.806Z,8.20
2023-10-07T06:10:35.076Z,8.30
2023-10-07T06:13:09.244Z,8.40
2023-10-07T06:15:39.108Z,8.50
2023-10-07T06:18:07.350Z,8.60
2023-10-07T06:20:38.719Z,8.70
2023-10-07T06:23:14.664Z,8.80
2023-10-07T06:25:49.885Z,8.80
2023-10-07T06:28:30.885Z,8.80
2023-10-07T06:31:11.741Z,8.80
2023-10-07T06:33:41.713Z,8.90
2023-10-07T06:36:11.318Z,8.90
2023-10-07T06:38:46.315Z,8.80
2023-10-07T06:41:15.000Z,8.90
2023-10-07T06:43:44.863Z,8.90
2023-10-07T06:46:14.152Z,9.00
2023-10-07T06:48:42.271Z,9.00
2023-10-07T06:51:12.299Z,9.10
2023-10-07T06:53:43.959Z,9.20
2023-10-07T06:56:21.718Z,9.50
2023-10-07T06:58:54.331Z,10.50
2023-10-07T07:01:39.174Z,11.60
2023-10-07T07:04:12.347Z,12.80
2023-10-07T07:06:44.124Z,14.00
2023-10-07T07:09:26.632Z,15.00
2023-10-07T07:11:54.683Z,15.20
2023-10-07T07:14:22.434Z,15.10
2023-10-07T07:16:52.171Z,14.80
2023-10-07T07:19:24.183Z,14.40
2023-10-07T07:21:51.478Z,14.20
2023-10-07T07:24:23.556Z,14.60
2023-10-07T07:26:53.639Z,15.20
2023-10-07T07:29:24.525Z,16.40
2023-10-07T07:31:54.101Z,16.60
2023-10-07T07:34:27.006Z,17.00
2023-10-07T07:37:02.403Z,17.50
2023-10-07T07:39:31.608Z,18.20
2023-10-07T07:42:16.169Z,18.20
2023-10-07T07:44:56.822Z,18.10
2023-10-07T07:47:31.993Z,17.70
2023-10-07T07:50:03.082Z,17.40
2023-10-07T07:52:33.155Z,17.30
2023-10-07T07:55:00.984Z,17.30
2023-10-07T07:57:29.054Z,17.10
2023-10-07T07:59:59.112Z,17.20
2023-10-07T08:02:28.304Z,17.20
2023-10-07T08:05:04.139Z,17.20
2023-10-07T08:07:31.560Z,17.40
2023-10-07T08:10:04.635Z,18.00
2023-10-07T08:12:35.165Z,18.60
2023-10-07T08:15:15.874Z,19.20
2023-10-07T08:17:46.482Z,19.60
2023-10-07T08:20:16.075Z,20.10
2023-10-07T08:22:47.519Z,21.70
2023-10-07T08:25:18.182Z,23.20
2023-10-07T08:27:46.273Z,24.10
2023-10-07T08:30:29.540Z,24.40
2023-10-07T08:32:58.808Z,24.60
2023-10-07T08:35:27.586Z,24.90
2023-10-07T08:37:55.559Z,24.50
2023-10-07T08:40:29.842Z,24.90
2023-10-07T08:42:59.817Z,24.90
2023-10-07T08:45:29.783Z,24.50
2023-10-07T08:48:16.132Z,24.00
2023-10-07T08:50:56.175Z,23.50
2023-10-07T08:53:25.719Z,22.90
2023-10-07T08:55:58.042Z,22.30
2023-10-07T08:58:27.878Z,21.90
2023-10-07T09:00:57.925Z,21.60
2023-10-07T09:03:30.674Z,21.30
2023-10-07T09:06:07.279Z,21.10
2023-10-07T09:08:35.570Z,21.00
2023-10-07T09:11:08.863Z,21.10
2023-10-07T09:13:39.607Z,21.30
2023-10-07T09:16:11.171Z,21.40
2023-10-07T09:18:42.880Z,21.30
2023-10-07T09:21:20.175Z,21.20
2023-10-07T09:23:50.071Z,21.20
2023-10-07T09:26:23.072Z,20.90
2023-10-07T09:28:59.417Z,20.70
2023-10-07T09:31:29.006Z,20.40
2023-10-07T09:34:11.408Z,20.80
2023-10-07T09:36:41.905Z,20.60
2023-10-07T09:39:26.886Z,21.30
2023-10-07T09:42:05.214Z,21.30
2023-10-07T09:44:39.099Z,22.00
2023-10-07T09:47:22.195Z,23.90
2023-10-07T09:49:59.086Z,26.00
2023-10-07T09:52:34.019Z,27.80
2023-10-07T09:55:27.163Z,29.00
2023-10-07T09:58:13.371Z,30.20
2023-10-07T10:01:05.429Z,30.80
2023-10-07T10:03:49.434Z,31.10
2023-10-07T10:06:36.005Z,29.80
2023-10-07T10:09:10.945Z,29.20
2023-10-07T10:11:47.177Z,29.10
2023-10-07T10:14:22.589Z,29.00
2023-10-07T10:16:56.267Z,29.30
2023-10-07T10:19:30.633Z,29.20
2023-10-07T10:22:12.534Z,28.90
2023-10-07T10:24:45.525Z,28.70
2023-10-07T10:27:16.014Z,28.20
2023-10-07T10:29:53.526Z,27.80
2023-10-07T10:32:30.465Z,26.40
2023-10-07T10:35:03.060Z,24.90
2023-10-07T10:37:32.812Z,24.40
2023-10-07T10:40:06.715Z,24.30
2023-10-07T10:42:42.486Z,23.90
2023-10-07T10:45:19.329Z,24.00
2023-10-07T10:47:51.937Z,23.80
2023-10-07T10:50:21.190Z,23.70
2023-10-07T10:52:50.983Z,23.60
2023-10-07T10:55:19.390Z,23.30
2023-10-07T10:57:47.502Z,23.20
2023-10-07T11:00:23.311Z,22.90
2023-10-07T11:02:54.082Z,22.50
2023-10-07T11:05:23.010Z,22.20
2023-10-07T11:07:55.622Z,22.30
2023-10-07T11:10:24.471Z,22.50
2023-10-07T11:12:55.647Z,22.10
2023-10-07T11:15:27.305Z,22.30
2023-10-07T11:17:57.087Z,22.10
2023-10-07T11:20:26.052Z,21.80
2023-10-07T11:22:55.585Z,21.40
2023-10-07T11:25:31.662Z,21.50
2023-10-07T11:28:06.386Z,21.40
2023-10-07T11:30:45.266Z,21.30
2023-10-07T11:33:17.263Z,21.40
2023-10-07T11:35:47.309Z,21.70
2023-10-07T11:38:19.653Z,21.90
2023-10-07T11:40:47.523Z,22.30
2023-10-07T11:43:15.327Z,22.60
2023-10-07T11:45:44.915Z,22.80
2023-10-07T11:48:12.887Z,23.00
2023-10-07T11:50:40.835Z,23.20
2023-10-07T11:53:09.185Z,23.30
2023-10-07T11:55:38.895Z,23.40
2023-10-07T11:58:09.024Z,23.40
2023-10-07T12:00:37.858Z,23.40
2023-10-07T12:03:09.300Z,23.50
2023-10-07T12:05:40.256Z,23.50
2023-10-07T12:08:13.986Z,23.50
2023-10-07T12:10:44.160Z,23.10
2023-10-07T12:13:13.040Z,22.80
2023-10-07T12:15:53.686Z,23.10
2023-10-07T12:18:32.048Z,23.20
2023-10-07T12:21:02.049Z,23.10
2023-10-07T12:23:30.852Z,22.90
2023-10-07T12:26:02.500Z,23.20
2023-10-07T12:28:32.420Z,23.30
2023-10-07T12:31:00.866Z,23.00
2023-10-07T12:33:36.594Z,23.00
2023-10-07T12:36:11.708Z,22.90
2023-10-07T12:38:39.829Z,23.00
2023-10-07T12:41:11.067Z,23.10
2023-10-07T12:43:39.848Z,22.90
2023-10-07T12:46:10.763Z,22.80
2023-10-07T12:48:41.194Z,23.00
2023-10-07T12:51:09.634Z,22.90
2023-10-07T12:53:37.930Z,23.00
2023-10-07T12:56:15.727Z,23.10
2023-10-07T12:58:46.937Z,23.10
2023-10-07T13:01:15.029Z,23.30
2023-10-07T13:03:44.691Z,23.40
2023-10-07T13:06:15.608Z,23.50
2023-10-07T13:08:44.906Z,23.60
2023-10-07T13:11:16.072Z,23.60
2023-10-07T13:13:46.539Z,23.60
2023-10-07T13:16:16.156Z,23.60
2023-10-07T13:18:46.170Z,23.50
2023-10-07T13:21:17.485Z,23.30
2023-10-07T13:23:47.174Z,23.40
2023-10-07T13:26:19.139Z,23.40
2023-10-07T13:28:49.472Z,23.30
2023-10-07T13:31:23.145Z,23.30
2023-10-07T13:33:53.144Z,23.30
2023-10-07T13:36:21.156Z,23.10
2023-10-07T13:38:49.108Z,22.90
2023-10-07T13:41:19.803Z,22.80
2023-10-07T13:43:47.787Z,22.80
2023-10-07T13:46:15.925Z,22.80
2023-10-07T13:48:44.536Z,22.80
2023-10-07T13:51:13.026Z,22.80
2023-10-07T13:54:13.530Z,22.90
2023-10-07T13:56:58.294Z,22.90
2023-10-07T13:59:27.549Z,23.00
2023-10-07T14:01:57.287Z,22.90
2023-10-07T14:04:26.575Z,23.00
2023-10-07T14:06:57.214Z,23.00
2023-10-07T14:09:26.354Z,23.00
2023-10-07T14:11:56.720Z,23.00
2023-10-07T14:14:26.083Z,23.10
2023-10-07T14:17:00.764Z,23.10
2023-10-07T14:19:31.106Z,23.00
2023-10-07T14:22:00.844Z,23.10
2023-10-07T14:24:30.668Z,23.20
2023-10-07T14:27:00.643Z,23.20
2023-10-07T14:29:28.961Z,23.20
2023-10-07T14:31:56.915Z,23.20
2023-10-07T14:34:24.840Z,23.20
2023-10-07T14:36:52.689Z,23.20
2023-10-07T14:39:28.337Z,23.10
2023-10-07T14:42:12.102Z,23.10
2023-10-07T14:44:40.848Z,23.10
2023-10-07T14:47:08.866Z,23.00
2023-10-07T14:49:37.347Z,23.00
2023-10-07T14:52:07.577Z,23.00
2023-10-07T14:54:35.755Z,23.00
2023-10-07T14:57:05.047Z,23.00
2023-10-07T14:59:35.336Z,23.00
2023-10-07T15:02:03.832Z,22.90
2023-10-07T15:04:31.955Z,22.90
2023-10-07T15:06:59.957Z,22.80
2023-10-07T15:09:28.643Z,22.80
2023-10-07T15:11:57.463Z,22.70
2023-10-07T15:14:25.696Z,22.60
2023-10-07T15:16:55.882Z,22.60
2023-10-07T15:19:24.592Z,22.60
2023-10-07T15:21:53.092Z,22.50
2023-10-07T15:24:21.538Z,22.50
2023-10-07T15:26:50.213Z,22.40
2023-10-07T15:29:18.678Z,22.30
2023-10-07T15:31:48.177Z,22.30
2023-10-07T15:34:20.562Z,22.30
2023-10-07T15:36:51.207Z,22.30
2023-10-07T15:39:19.607Z,22.20
2023-10-07T15:41:47.443Z,22.20
2023-10-07T15:44:15.453Z,22.10
2023-10-07T15:46:43.421Z,22.00
2023-10-07T15:49:12.974Z,22.10
2023-10-07T15:51:45.448Z,22.00
2023-10-07T15:54:15.427Z,21.90
2023-10-07T15:56:43.540Z,21.70
2023-10-07T15:59:12.659Z,21.60
2023-10-07T16:01:44.193Z,21.50
2023-10-07T16:04:13.514Z,21.30
2023-10-07T16:06:44.580Z,21.20
2023-10-07T16:09:15.673Z,21.00
2023-10-07T16:11:44.680Z,20.80
2023-10-07T16:14:13.126Z,20.60
2023-10-07T16:16:41.146Z,20.50
2023-10-07T16:19:12.004Z,20.30
2023-10-07T16:21:40.242Z,20.20
2023-10-07T16:24:12.274Z,20.00
2023-10-07T16:26:41.350Z,19.80
2023-10-07T16:29:10.146Z,19.70
2023-10-07T16:31:38.875Z,19.30
2023-10-07T16:34:06.843Z,19.20
2023-10-07T16:36:34.862Z,19.10
2023-10-07T16:39:03.346Z,18.80
2023-10-07T16:41:35.624Z,18.70
2023-10-07T16:44:04.848Z,18.60
2023-10-07T16:46:32.947Z,18.60
2023-10-07T16:49:01.375Z,18.50
2023-10-07T16:51:30.186Z,18.20
2023-10-07T16:53:58.070Z,18.10
2023-10-07T16:56:26.281Z,17.80
2023-10-07T16:58:55.424Z,17.80
2023-10-07T17:01:23.413Z,17.60
2023-10-07T17:03:51.581Z,17.60
2023-10-07T17:06:20.083Z,17.50
2023-10-07T17:08:48.862Z,17.40
2023-10-07T17:11:19.084Z,17.30
2023-10-07T17:13:47.508Z,17.20
2023-10-07T17:16:19.094Z,17.20
2023-10-07T17:18:47.880Z,17.00
2023-10-07T17:21:16.283Z,16.90
2023-10-07T17:23:44.255Z,16.80
2023-10-07T17:26:12.378Z,16.70
2023-10-07T17:28:40.458Z,16.70
2023-10-07T17:31:11.185Z,16.60
2023-10-07T17:33:41.032Z,16.40
2023-10-07T17:36:08.946Z,16.40
2023-10-07T17:38:37.221Z,16.40
2023-10-07T17:41:05.322Z,16.40
2023-10-07T17:43:33.265Z,16.40
2023-10-07T17:46:01.317Z,16.40
2023-10-07T17:48:29.984Z,16.30
2023-10-07T17:50:59.187Z,16.30
2023-10-07T17:53:27.124Z,16.20
2023-10-07T17:55:55.661Z,16.20
2023-10-07T17:58:23.775Z,16.10
2023-10-07T18:00:55.186Z,16.00
2023-10-07T18:03:24.360Z,16.00
2023-10-07T18:05:52.354Z,16.00
2023-10-07T18:08:22.304Z,15.80
2023-10-07T18:10:50.328Z,15.70
2023-10-07T18:13:22.239Z,15.70
2023-10-07T18:15:50.461Z,15.70
2023-10-07T18:18:18.935Z,15.60
2023-10-07T18:20:51.020Z,15.40
2023-10-07T18:23:18.889Z,15.40
2023-10-07T18:25:49.444Z,15.40
2023-10-07T18:28:17.529Z,15.40
2023-10-07T18:30:45.977Z,15.20
2023-10-07T18:33:14.491Z,15.20
2023-10-07T18:35:42.358Z,15.10
2023-10-07T18:38:10.307Z,15.10
2023-10-07T18:40:39.273Z,15.10
2023-10-07T18:43:08.732Z,15.00
2023-10-07T18:45:36.815Z,15.00
2023-10-07T18:48:06.035Z,15.00
2023-10-07T18:50:35.946Z,14.90
2023-10-07T18:53:06.318Z,14.90
2023-10-07T18:55:34.169Z,14.80
2023-10-07T18:58:08.795Z,14.80
2023-10-07T19:00:39.063Z,14.80
2023-10-07T19:03:07.367Z,14.70
2023-10-07T19:05:35.895Z,14.60
2023-10-07T19:08:04.306Z,14.60
2023-10-07T19:10:32.337Z,14.60
2023-10-07T19:13:00.915Z,14.60
2023-10-07T19:15:28.671Z,14.60
2023-10-07T19:17:58.292Z,14.60
2023-10-07T19:20:26.138Z,14.60
2023-10-07T19:22:53.977Z,14.60
2023-10-07T19:25:21.859Z,14.60
2023-10-07T19:27:49.725Z,14.50
2023-10-07T19:30:19.322Z,14.60
2023-10-07T19:32:47.242Z,14.60
2023-10-07T19:35:16.433Z,14.60
2023-10-07T19:37:44.298Z,14.60
2023-10-07T19:40:12.438Z,14.70
2023-10-07T19:42:40.934Z,14.70
2023-10-07T19:45:11.449Z,14.60
2023-10-07T19:47:40.151Z,14.50
2023-10-07T19:50:09.099Z,14.40
2023-10-07T19:52:39.778Z,14.30
2023-10-07T19:55:08.910Z,14.20
2023-10-07T19:57:37.043Z,14.20
2023-10-07T20:00:07.552Z,14.10
2023-10-07T20:02:38.019Z,14.10
2023-10-07T20:05:09.820Z,14.10
2023-10-07T20:07:40.370Z,14.10
2023-10-07T20:10:11.882Z,14.10
2023-10-07T20:12:41.284Z,14.00
2023-10-07T20:15:10.759Z,14.10
2023-10-07T20:17:41.545Z,14.00
2023-10-07T20:20:11.647Z,13.90
2023-10-07T20:22:43.515Z,13.80
2023-10-07T20:25:12.533Z,13.70
2023-10-07T20:27:45.187Z,13.70
2023-10-07T20:30:15.982Z,13.80
2023-10-07T20:32:44.020Z,13.80
2023-10-07T20:35:12.181Z,13.90
2023-10-07T20:37:41.355Z,13.90
2023-10-07T20:40:12.055Z,13.90
2023-10-07T20:42:41.493Z,13.90
2023-10-07T20:45:12.228Z,13.80
2023-10-07T20:47:40.816Z,13.80
2023-10-07T20:50:09.404Z,13.70
2023-10-07T20:52:37.729Z,13.70
2023-10-07T20:55:07.239Z,13.80
2023-10-07T20:57:35.347Z,13.80
2023-10-07T21:00:06.084Z,13.80
2023-10-07T21:02:35.084Z,13.80
2023-10-07T21:05:02.995Z,13.80
2023-10-07T21:07:30.980Z,13.80
2023-10-07T21:09:58.859Z,13.70
2023-10-07T21:12:27.940Z,13.70
2023-10-07T21:14:55.791Z,13.60
2023-10-07T21:17:23.630Z,13.60
2023-10-07T21:19:51.466Z,13.60
2023-10-07T21:22:19.275Z,13.60
2023-10-07T21:24:47.141Z,13.50
2023-10-07T21:27:15.043Z,13.40
2023-10-07T21:29:44.152Z,13.40
2023-10-07T21:32:12.392Z,13.50
2023-10-07T21:34:40.506Z,13.40
2023-10-07T21:37:08.228Z,13.50
2023-10-07T21:39:36.240Z,13.40
2023-10-07T21:42:04.507Z,13.40
2023-10-07T21:44:34.726Z,13.40
2023-10-07T21:47:04.219Z,13.30
2023-10-07T21:49:32.068Z,13.30
2023-10-07T21:51:59.844Z,13.30
2023-10-07T21:54:27.844Z,13.30
2023-10-07T21:56:55.916Z,13.20
2023-10-07T21:59:23.643Z,13.20
2023-10-07T22:01:54.036Z,13.10
2023-10-07T22:04:23.464Z,13.10
2023-10-07T22:06:51.326Z,13.00
2023-10-07T22:09:19.743Z,13.00
2023-10-07T22:11:50.649Z,12.90
2023-10-07T22:14:18.964Z,12.80
2023-10-07T22:16:46.913Z,12.70
2023-10-07T22:19:14.702Z,12.60
2023-10-07T22:21:44.255Z,12.60
2023-10-07T22:24:12.059Z,12.60
2023-10-07T22:26:40.310Z,12.60
2023-10-07T22:29:08.634Z,12.60
2023-10-07T22:31:46.887Z,12.50
2023-10-07T22:34:15.780Z,12.50
2023-10-07T22:36:45.453Z,12.50
2023-10-07T22:39:30.614Z,12.50
2023-10-07T22:41:59.974Z,12.40
2023-10-07T22:44:27.843Z,12.40
2023-10-07T22:46:57.303Z,12.30
2023-10-07T22:49:27.945Z,12.30
2023-10-07T22:52:01.558Z,12.30
2023-10-07T22:54:33.210Z,12.30
2023-10-07T22:57:01.492Z,12.30
2023-10-07T22:59:29.365Z,12.20
2023-10-07T23:01:58.655Z,12.20
2023-10-07T23:04:28.318Z,12.10
2023-10-07T23:06:58.365Z,12.00
2023-10-07T23:09:29.755Z,12.00
2023-10-07T23:12:03.798Z,12.00
2023-10-07T23:14:31.796Z,12.00
2023-10-07T23:16:59.602Z,12.00
2023-10-07T23:19:40.823Z,11.90
2023-10-07T23:22:15.301Z,11.90
2023-10-07T23:24:52.109Z,11.90
2023-10-07T23:27:23.430Z,11.90
2023-10-07T23:29:55.951Z,11.90
2023-10-07T23:32:26.018Z,11.90
2023-10-07T23:35:00.386Z,11.80
2023-10-07T23:37:31.345Z,11.80
2023-10-07T23:39:59.244Z,11.70
2023-10-07T23:42:27.503Z,11.70
2023-10-07T23:44:55.805Z,11.60
2023-10-07T23:47:24.706Z,11.60
2023-10-07T23:49:55.634Z,11.60
2023-10-07T23:52:25.420Z,11.50
2023-10-07T23:54:58.199Z,11.50
2023-10-07T23:57:30.806Z,11.50
2023-10-07T23:59:59.194Z,11.50
